sensor_id;sensor_type;location;lat;lon;timestamp;temperature;humidity
22813;DHT22;11573;51.334;3.244;2023-11-21T00:00:14;11.40;99.90
22813;DHT22;11573;51.334;3.244;2023-11-21T00:02:44;11.40;99.90
22813;DHT22;11573;51.334;3.244;2023-11-21T00:05:13;11.40;99.90
22813;DHT22;11573;51.334;3.244;2023-11-21T00:07:43;11.40;99.90
22813;DHT22;11573;51.334;3.244;2023-11-21T00:10:11;11.30;99.90
22813;DHT22;11573;51.334;3.244;2023-11-21T00:12:41;11.30;99.90
22813;DHT22;11573;51.334;3.244;2023-11-21T00:15:09;11.30;99.90
22813;DHT22;11573;51.334;3.244;2023-11-21T00:17:38;11.30;99.90
22813;DHT22;11573;51.334;3.244;2023-11-21T00:20:06;11.20;99.90
22813;DHT22;11573;51.334;3.244;2023-11-21T00:22:34;11.20;99.90
22813;DHT22;11573;51.334;3.244;2023-11-21T00:25:02;11.30;99.90
22813;DHT22;11573;51.334;3.244;2023-11-21T00:27:30;11.20;99.90
22813;DHT22;11573;51.334;3.244;2023-11-21T00:29:57;11.30;99.90
22813;DHT22;11573;51.334;3.244;2023-11-21T00:32:24;11.40;99.90
22813;DHT22;11573;51.334;3.244;2023-11-21T00:34:51;11.40;99.90
22813;DHT22;11573;51.334;3.244;2023-11-21T00:37:18;11.40;99.90
22813;DHT22;11573;51.334;3.244;2023-11-21T00:39:45;11.40;99.90
22813;DHT22;11573;51.334;3.244;2023-11-21T00:42:12;11.40;99.90
22813;DHT22;11573;51.334;3.244;2023-11-21T00:44:39;11.40;99.90
22813;DHT22;11573;51.334;3.244;2023-11-21T00:47:07;11.30;99.90
22813;DHT22;11573;51.334;3.244;2023-11-21T00:49:34;11.30;99.90
22813;DHT22;11573;51.334;3.244;2023-11-21T00:52:02;11.20;99.90
22813;DHT22;11573;51.334;3.244;2023-11-21T00:54:29;11.20;99.90
22813;DHT22;11573;51.334;3.244;2023-11-21T00:57:01;11.20;99.90
22813;DHT22;11573;51.334;3.244;2023-11-21T00:59:28;11.10;99.90
22813;DHT22;11573;51.334;3.244;2023-11-21T01:01:55;11.00;99.90
22813;DHT22;11573;51.334;3.244;2023-11-21T01:04:22;11.00;99.90
22813;DHT22;11573;51.334;3.244;2023-11-21T01:06:49;10.90;99.90
22813;DHT22;11573;51.334;3.244;2023-11-21T01:09:16;10.90;99.90
22813;DHT22;11573;51.334;3.244;2023-11-21T01:11:45;10.90;99.90
22813;DHT22;11573;51.334;3.244;2023-11-21T01:14:13;10.80;99.90
22813;DHT22;11573;51.334;3.244;2023-11-21T01:16:41;10.80;99.90
22813;DHT22;11573;51.334;3.244;2023-11-21T01:19:08;10.80;99.90
22813;DHT22;11573;51.334;3.244;2023-11-21T01:21:36;10.70;99.90
22813;DHT22;11573;51.334;3.244;2023-11-21T01:24:04;10.70;99.90
22813;DHT22;11573;51.334;3.244;2023-11-21T01:26:34;10.60;99.90
22813;DHT22;11573;51.334;3.244;2023-11-21T01:29:01;10.60;99.90
22813;DHT22;11573;51.334;3.244;2023-11-21T01:31:28;10.50;99.90
22813;DHT22;11573;51.334;3.244;2023-11-21T01:33:57;10.50;99.90
22813;DHT22;11573;51.334;3.244;2023-11-21T01:36:33;10.50;99.90
22813;DHT22;11573;51.334;3.244;2023-11-21T01:39:00;10.50;99.90
22813;DHT22;11573;51.334;3.244;2023-11-21T01:41:27;10.50;99.90
22813;DHT22;11573;51.334;3.244;2023-11-21T01:43:57;10.50;99.90
22813;DHT22;11573;51.334;3.244;2023-11-21T01:46:24;10.40;99.90
22813;DHT22;11573;51.334;3.244;2023-11-21T01:48:52;10.40;99.90
22813;DHT22;11573;51.334;3.244;2023-11-21T01:51:20;10.40;99.90
22813;DHT22;11573;51.334;3.244;2023-11-21T01:53:47;10.40;99.90
22813;DHT22;11573;51.334;3.244;2023-11-21T01:56:16;10.40;99.90
22813;DHT22;11573;51.334;3.244;2023-11-21T01:58:43;10.40;99.90
22813;DHT22;11573;51.334;3.244;2023-11-21T02:01:11;10.40;99.90
22813;DHT22;11573;51.334;3.244;2023-11-21T02:03:38;10.40;99.90
22813;DHT22;11573;51.334;3.244;2023-11-21T02:06:05;10.40;99.90
22813;DHT22;11573;51.334;3.244;2023-11-21T02:08:32;10.40;99.90
22813;DHT22;11573;51.334;3.244;2023-11-21T02:11:00;10.40;99.90
22813;DHT22;11573;51.334;3.244;2023-11-21T02:13:27;10.40;99.90
22813;DHT22;11573;51.334;3.244;2023-11-21T02:15:54;10.50;99.90
22813;DHT22;11573;51.334;3.244;2023-11-21T02:18:21;10.50;99.90
22813;DHT22;11573;51.334;3.244;2023-11-21T02:20:49;10.50;99.90
22813;DHT22;11573;51.334;3.244;2023-11-21T02:23:16;10.50;99.90
22813;DHT22;11573;51.334;3.244;2023-11-21T02:25:43;10.50;99.90
22813;DHT22;11573;51.334;3.244;2023-11-21T02:28:10;10.50;99.90
22813;DHT22;11573;51.334;3.244;2023-11-21T02:30:40;10.50;99.90
22813;DHT22;11573;51.334;3.244;2023-11-21T02:33:07;10.60;99.90
22813;DHT22;11573;51.334;3.244;2023-11-21T02:35:34;10.60;99.90
22813;DHT22;11573;51.334;3.244;2023-11-21T02:38:02;10.60;99.90
22813;DHT22;11573;51.334;3.244;2023-11-21T02:40:29;10.60;99.90
22813;DHT22;11573;51.334;3.244;2023-11-21T02:42:57;10.60;99.90
22813;DHT22;11573;51.334;3.244;2023-11-21T02:45:26;10.70;99.90
22813;DHT22;11573;51.334;3.244;2023-11-21T02:47:53;10.70;99.90
22813;DHT22;11573;51.334;3.244;2023-11-21T02:50:22;10.70;99.90
22813;DHT22;11573;51.334;3.244;2023-11-21T02:52:50;10.70;99.90
22813;DHT22;11573;51.334;3.244;2023-11-21T02:55:19;10.70;99.90
22813;DHT22;11573;51.334;3.244;2023-11-21T02:57:46;10.70;99.90
22813;DHT22;11573;51.334;3.244;2023-11-21T03:00:14;10.70;99.90
22813;DHT22;11573;51.334;3.244;2023-11-21T03:02:42;10.80;99.90
22813;DHT22;11573;51.334;3.244;2023-11-21T03:05:10;10.80;99.90
22813;DHT22;11573;51.334;3.244;2023-11-21T03:07:38;10.80;99.90
22813;DHT22;11573;51.334;3.244;2023-11-21T03:10:07;10.80;99.90
22813;DHT22;11573;51.334;3.244;2023-11-21T03:12:40;10.80;99.90
22813;DHT22;11573;51.334;3.244;2023-11-21T03:15:07;10.80;99.90
22813;DHT22;11573;51.334;3.244;2023-11-21T03:17:36;10.80;99.90
22813;DHT22;11573;51.334;3.244;2023-11-21T03:20:04;10.80;99.90
22813;DHT22;11573;51.334;3.244;2023-11-21T03:22:31;10.80;99.90
22813;DHT22;11573;51.334;3.244;2023-11-21T03:25:00;10.80;99.90
22813;DHT22;11573;51.334;3.244;2023-11-21T03:27:27;10.80;99.90
22813;DHT22;11573;51.334;3.244;2023-11-21T03:29:54;10.80;99.90
22813;DHT22;11573;51.334;3.244;2023-11-21T03:32:23;10.80;99.90
22813;DHT22;11573;51.334;3.244;2023-11-21T03:34:55;10.80;99.90
22813;DHT22;11573;51.334;3.244;2023-11-21T03:37:24;10.80;99.90
22813;DHT22;11573;51.334;3.244;2023-11-21T03:39:51;10.90;99.90
22813;DHT22;11573;51.334;3.244;2023-11-21T03:42:18;10.90;99.90
22813;DHT22;11573;51.334;3.244;2023-11-21T03:44:46;10.90;99.90
22813;DHT22;11573;51.334;3.244;2023-11-21T03:47:13;10.80;99.90
22813;DHT22;11573;51.334;3.244;2023-11-21T03:49:40;10.90;99.90
22813;DHT22;11573;51.334;3.244;2023-11-21T03:52:07;10.80;99.90
22813;DHT22;11573;51.334;3.244;2023-11-21T03:54:34;10.80;99.90
22813;DHT22;11573;51.334;3.244;2023-11-21T03:57:03;10.80;99.90
22813;DHT22;11573;51.334;3.244;2023-11-21T03:59:30;10.90;99.90
22813;DHT22;11573;51.334;3.244;2023-11-21T04:01:57;10.80;99.90
22813;DHT22;11573;51.334;3.244;2023-11-21T04:04:24;10.90;99.90
22813;DHT22;11573;51.334;3.244;2023-11-21T04:06:52;11.00;99.90
22813;DHT22;11573;51.334;3.244;2023-11-21T04:09:19;11.00;99.90
22813;DHT22;11573;51.334;3.244;2023-11-21T04:11:46;10.90;99.90
22813;DHT22;11573;51.334;3.244;2023-11-21T04:14:13;10.80;99.90
22813;DHT22;11573;51.334;3.244;2023-11-21T04:16:40;10.80;99.90
22813;DHT22;11573;51.334;3.244;2023-11-21T04:19:08;10.60;99.90
22813;DHT22;11573;51.334;3.244;2023-11-21T04:21:37;10.50;99.90
22813;DHT22;11573;51.334;3.244;2023-11-21T04:24:05;10.50;99.90
22813;DHT22;11573;51.334;3.244;2023-11-21T04:26:33;10.40;99.90
22813;DHT22;11573;51.334;3.244;2023-11-21T04:29:00;10.30;99.90
22813;DHT22;11573;51.334;3.244;2023-11-21T04:31:27;10.20;99.90
22813;DHT22;11573;51.334;3.244;2023-11-21T04:33:54;10.00;99.90
22813;DHT22;11573;51.334;3.244;2023-11-21T04:36:21;9.90;99.90
22813;DHT22;11573;51.334;3.244;2023-11-21T04:38:48;9.90;99.90
22813;DHT22;11573;51.334;3.244;2023-11-21T04:41:15;9.80;99.90
22813;DHT22;11573;51.334;3.244;2023-11-21T04:43:42;9.80;99.90
22813;DHT22;11573;51.334;3.244;2023-11-21T04:46:09;9.80;99.90
22813;DHT22;11573;51.334;3.244;2023-11-21T04:48:44;9.80;99.90
22813;DHT22;11573;51.334;3.244;2023-11-21T04:51:11;9.80;99.90
22813;DHT22;11573;51.334;3.244;2023-11-21T04:53:39;9.90;99.90
22813;DHT22;11573;51.334;3.244;2023-11-21T04:56:06;9.80;99.90
22813;DHT22;11573;51.334;3.244;2023-11-21T04:58:33;9.90;99.90
22813;DHT22;11573;51.334;3.244;2023-11-21T05:01:00;9.90;99.90
22813;DHT22;11573;51.334;3.244;2023-11-21T05:03:27;10.00;99.90
22813;DHT22;11573;51.334;3.244;2023-11-21T05:05:57;10.00;99.90
22813;DHT22;11573;51.334;3.244;2023-11-21T05:08:23;10.00;99.90
22813;DHT22;11573;51.334;3.244;2023-11-21T05:10:51;10.00;99.90
22813;DHT22;11573;51.334;3.244;2023-11-21T05:13:19;10.00;99.90
22813;DHT22;11573;51.334;3.244;2023-11-21T05:15:47;10.00;99.90
22813;DHT22;11573;51.334;3.244;2023-11-21T05:18:13;10.10;99.90
22813;DHT22;11573;51.334;3.244;2023-11-21T05:20:41;10.20;99.90
22813;DHT22;11573;51.334;3.244;2023-11-21T05:23:09;10.20;99.90
22813;DHT22;11573;51.334;3.244;2023-11-21T05:25:36;10.30;99.90
22813;DHT22;11573;51.334;3.244;2023-11-21T05:28:07;10.50;99.90
22813;DHT22;11573;51.334;3.244;2023-11-21T05:30:34;10.60;99.90
22813;DHT22;11573;51.334;3.244;2023-11-21T05:33:01;10.80;99.90
22813;DHT22;11573;51.334;3.244;2023-11-21T05:35:28;10.90;99.90
22813;DHT22;11573;51.334;3.244;2023-11-21T05:37:55;10.90;99.90
22813;DHT22;11573;51.334;3.244;2023-11-21T05:40:22;11.00;99.90
22813;DHT22;11573;51.334;3.244;2023-11-21T05:42:51;11.00;99.90
22813;DHT22;11573;51.334;3.244;2023-11-21T05:45:18;10.90;99.90
22813;DHT22;11573;51.334;3.244;2023-11-21T05:47:46;10.80;99.90
22813;DHT22;11573;51.334;3.244;2023-11-21T05:50:15;10.70;99.90
22813;DHT22;11573;51.334;3.244;2023-11-21T05:52:46;10.70;99.90
22813;DHT22;11573;51.334;3.244;2023-11-21T05:55:14;10.60;99.90
22813;DHT22;11573;51.334;3.244;2023-11-21T05:57:42;10.40;99.90
22813;DHT22;11573;51.334;3.244;2023-11-21T06:00:12;10.30;99.90
22813;DHT22;11573;51.334;3.244;2023-11-21T06:02:59;10.30;99.90
22813;DHT22;11573;51.334;3.244;2023-11-21T06:05:27;10.20;99.90
22813;DHT22;11573;51.334;3.244;2023-11-21T06:07:55;10.30;99.90
22813;DHT22;11573;51.334;3.244;2023-11-21T06:10:26;10.40;99.90
22813;DHT22;11573;51.334;3.244;2023-11-21T06:12:55;10.40;99.90
22813;DHT22;11573;51.334;3.244;2023-11-21T06:15:22;10.70;99.90
22813;DHT22;11573;51.334;3.244;2023-11-21T06:17:51;10.80;99.90
22813;DHT22;11573;51.334;3.244;2023-11-21T06:20:21;10.90;99.90
22813;DHT22;11573;51.334;3.244;2023-11-21T06:22:50;10.90;99.90
22813;DHT22;11573;51.334;3.244;2023-11-21T06:25:17;10.90;99.90
22813;DHT22;11573;51.334;3.244;2023-11-21T06:27:48;10.90;99.90
22813;DHT22;11573;51.334;3.244;2023-11-21T06:30:16;10.90;99.90
22813;DHT22;11573;51.334;3.244;2023-11-21T06:32:43;10.90;99.90
22813;DHT22;11573;51.334;3.244;2023-11-21T06:35:13;10.80;99.90
22813;DHT22;11573;51.334;3.244;2023-11-21T06:37:43;10.80;99.90
22813;DHT22;11573;51.334;3.244;2023-11-21T06:40:17;11.00;99.90
22813;DHT22;11573;51.334;3.244;2023-11-21T06:42:46;11.10;99.90
22813;DHT22;11573;51.334;3.244;2023-11-21T06:45:14;11.10;99.90
22813;DHT22;11573;51.334;3.244;2023-11-21T06:47:42;11.20;99.90
22813;DHT22;11573;51.334;3.244;2023-11-21T06:50:09;11.10;99.90
22813;DHT22;11573;51.334;3.244;2023-11-21T06:52:36;11.10;99.90
22813;DHT22;11573;51.334;3.244;2023-11-21T06:55:04;11.00;99.90
22813;DHT22;11573;51.334;3.244;2023-11-21T06:57:31;11.00;99.90
22813;DHT22;11573;51.334;3.244;2023-11-21T06:59:59;10.90;99.90
22813;DHT22;11573;51.334;3.244;2023-11-21T07:02:27;10.90;99.90
22813;DHT22;11573;51.334;3.244;2023-11-21T07:04:54;10.90;99.90
22813;DHT22;11573;51.334;3.244;2023-11-21T07:07:22;10.90;99.90
22813;DHT22;11573;51.334;3.244;2023-11-21T07:09:49;10.90;99.90
22813;DHT22;11573;51.334;3.244;2023-11-21T07:12:16;10.90;99.90
22813;DHT22;11573;51.334;3.244;2023-11-21T07:14:43;10.90;99.90
22813;DHT22;11573;51.334;3.244;2023-11-21T07:17:11;11.00;99.90
22813;DHT22;11573;51.334;3.244;2023-11-21T07:19:39;11.00;99.90
22813;DHT22;11573;51.334;3.244;2023-11-21T07:22:06;11.00;99.90
22813;DHT22;11573;51.334;3.244;2023-11-21T07:24:33;11.10;99.90
22813;DHT22;11573;51.334;3.244;2023-11-21T07:27:00;11.10;99.90
22813;DHT22;11573;51.334;3.244;2023-11-21T07:29:27;11.10;99.90
22813;DHT22;11573;51.334;3.244;2023-11-21T07:31:56;11.20;99.90
22813;DHT22;11573;51.334;3.244;2023-11-21T07:34:23;11.20;99.90
22813;DHT22;11573;51.334;3.244;2023-11-21T07:36:51;11.20;99.90
22813;DHT22;11573;51.334;3.244;2023-11-21T07:39:18;11.30;99.90
22813;DHT22;11573;51.334;3.244;2023-11-21T07:41:45;11.30;99.90
22813;DHT22;11573;51.334;3.244;2023-11-21T07:44:19;11.30;99.90
22813;DHT22;11573;51.334;3.244;2023-11-21T07:46:48;11.30;99.90
22813;DHT22;11573;51.334;3.244;2023-11-21T07:49:16;11.30;99.90
22813;DHT22;11573;51.334;3.244;2023-11-21T07:51:47;11.40;99.90
22813;DHT22;11573;51.334;3.244;2023-11-21T07:54:14;11.40;99.90
22813;DHT22;11573;51.334;3.244;2023-11-21T07:56:42;11.50;99.90
22813;DHT22;11573;51.334;3.244;2023-11-21T07:59:09;11.50;99.90
22813;DHT22;11573;51.334;3.244;2023-11-21T08:01:37;11.40;99.90
22813;DHT22;11573;51.334;3.244;2023-11-21T08:04:04;11.50;99.90
22813;DHT22;11573;51.334;3.244;2023-11-21T08:06:32;11.40;99.90
22813;DHT22;11573;51.334;3.244;2023-11-21T08:08:59;11.40;99.90
22813;DHT22;11573;51.334;3.244;2023-11-21T08:11:26;11.40;99.90
22813;DHT22;11573;51.334;3.244;2023-11-21T08:13:56;11.40;99.90
22813;DHT22;11573;51.334;3.244;2023-11-21T08:16:23;11.40;99.90
22813;DHT22;11573;51.334;3.244;2023-11-21T08:18:51;11.50;99.90
22813;DHT22;11573;51.334;3.244;2023-11-21T08:21:18;11.60;99.90
22813;DHT22;11573;51.334;3.244;2023-11-21T08:23:46;11.70;99.90
22813;DHT22;11573;51.334;3.244;2023-11-21T08:26:16;11.80;99.90
22813;DHT22;11573;51.334;3.244;2023-11-21T08:28:44;11.80;99.90
22813;DHT22;11573;51.334;3.244;2023-11-21T08:31:12;11.70;99.90
22813;DHT22;11573;51.334;3.244;2023-11-21T08:33:41;11.60;99.90
22813;DHT22;11573;51.334;3.244;2023-11-21T08:36:09;11.60;99.90
22813;DHT22;11573;51.334;3.244;2023-11-21T08:38:37;11.50;99.90
22813;DHT22;11573;51.334;3.244;2023-11-21T08:41:06;11.60;99.90
22813;DHT22;11573;51.334;3.244;2023-11-21T08:43:36;11.60;99.90
22813;DHT22;11573;51.334;3.244;2023-11-21T08:46:06;11.60;99.90
22813;DHT22;11573;51.334;3.244;2023-11-21T08:48:36;11.60;99.90
22813;DHT22;11573;51.334;3.244;2023-11-21T08:51:04;11.60;99.90
22813;DHT22;11573;51.334;3.244;2023-11-21T08:53:31;11.60;99.90
22813;DHT22;11573;51.334;3.244;2023-11-21T08:55:59;11.50;99.90
22813;DHT22;11573;51.334;3.244;2023-11-21T08:58:27;11.60;99.90
22813;DHT22;11573;51.334;3.244;2023-11-21T09:00:54;11.70;99.90
22813;DHT22;11573;51.334;3.244;2023-11-21T09:03:21;11.80;99.90
22813;DHT22;11573;51.334;3.244;2023-11-21T09:05:48;11.80;99.90
22813;DHT22;11573;51.334;3.244;2023-11-21T09:08:15;11.80;99.90
22813;DHT22;11573;51.334;3.244;2023-11-21T09:10:43;11.80;99.90
22813;DHT22;11573;51.334;3.244;2023-11-21T09:13:13;11.70;99.90
22813;DHT22;11573;51.334;3.244;2023-11-21T09:15:43;11.60;99.90
22813;DHT22;11573;51.334;3.244;2023-11-21T09:18:16;11.70;99.90
22813;DHT22;11573;51.334;3.244;2023-11-21T09:20:43;11.70;99.90
22813;DHT22;11573;51.334;3.244;2023-11-21T09:23:13;11.80;99.90
22813;DHT22;11573;51.334;3.244;2023-11-21T09:25:40;11.90;99.90
22813;DHT22;11573;51.334;3.244;2023-11-21T09:28:07;11.90;99.90
22813;DHT22;11573;51.334;3.244;2023-11-21T09:30:35;11.90;99.90
22813;DHT22;11573;51.334;3.244;2023-11-21T09:33:04;12.00;99.90
22813;DHT22;11573;51.334;3.244;2023-11-21T09:35:33;12.10;99.90
22813;DHT22;11573;51.334;3.244;2023-11-21T09:38:00;12.10;99.90
22813;DHT22;11573;51.334;3.244;2023-11-21T09:40:32;12.10;99.90
22813;DHT22;11573;51.334;3.244;2023-11-21T09:43:00;12.20;99.90
22813;DHT22;11573;51.334;3.244;2023-11-21T09:45:35;12.30;99.90
22813;DHT22;11573;51.334;3.244;2023-11-21T09:48:02;12.30;99.90
22813;DHT22;11573;51.334;3.244;2023-11-21T09:50:30;12.20;99.90
22813;DHT22;11573;51.334;3.244;2023-11-21T09:53:13;12.20;99.90
22813;DHT22;11573;51.334;3.244;2023-11-21T09:55:44;12.20;99.90
22813;DHT22;11573;51.334;3.244;2023-11-21T09:58:13;12.20;99.90
22813;DHT22;11573;51.334;3.244;2023-11-21T10:00:42;12.20;99.90
22813;DHT22;11573;51.334;3.244;2023-11-21T10:03:10;12.30;99.90
22813;DHT22;11573;51.334;3.244;2023-11-21T10:05:38;12.40;99.90
22813;DHT22;11573;51.334;3.244;2023-11-21T10:08:08;12.50;99.90
22813;DHT22;11573;51.334;3.244;2023-11-21T10:10:37;12.60;99.90
22813;DHT22;11573;51.334;3.244;2023-11-21T10:13:06;12.50;99.90
22813;DHT22;11573;51.334;3.244;2023-11-21T10:15:35;12.50;99.90
22813;DHT22;11573;51.334;3.244;2023-11-21T10:18:03;12.50;99.90
22813;DHT22;11573;51.334;3.244;2023-11-21T10:20:32;12.60;99.90
22813;DHT22;11573;51.334;3.244;2023-11-21T10:23:00;12.70;99.90
22813;DHT22;11573;51.334;3.244;2023-11-21T10:25:31;12.60;99.90
22813;DHT22;11573;51.334;3.244;2023-11-21T10:27:59;12.60;99.90
22813;DHT22;11573;51.334;3.244;2023-11-21T10:30:35;12.70;99.90
22813;DHT22;11573;51.334;3.244;2023-11-21T10:33:05;12.70;99.90
22813;DHT22;11573;51.334;3.244;2023-11-21T10:35:45;12.70;99.90
22813;DHT22;11573;51.334;3.244;2023-11-21T10:38:22;12.80;99.90
22813;DHT22;11573;51.334;3.244;2023-11-21T10:40:51;12.70;99.90
22813;DHT22;11573;51.334;3.244;2023-11-21T10:43:19;12.70;99.90
22813;DHT22;11573;51.334;3.244;2023-11-21T10:45:46;12.80;99.90
22813;DHT22;11573;51.334;3.244;2023-11-21T10:48:14;12.80;99.90
22813;DHT22;11573;51.334;3.244;2023-11-21T10:50:46;12.70;99.90
22813;DHT22;11573;51.334;3.244;2023-11-21T10:53:14;12.60;99.90
22813;DHT22;11573;51.334;3.244;2023-11-21T10:55:42;12.70;99.90
22813;DHT22;11573;51.334;3.244;2023-11-21T10:58:13;12.70;99.90
22813;DHT22;11573;51.334;3.244;2023-11-21T11:00:41;12.80;99.90
22813;DHT22;11573;51.334;3.244;2023-11-21T11:03:09;12.90;99.90
22813;DHT22;11573;51.334;3.244;2023-11-21T11:05:46;13.00;99.90
22813;DHT22;11573;51.334;3.244;2023-11-21T11:08:21;13.10;99.90
22813;DHT22;11573;51.334;3.244;2023-11-21T11:10:55;13.00;99.90
22813;DHT22;11573;51.334;3.244;2023-11-21T11:13:22;12.90;99.90
22813;DHT22;11573;51.334;3.244;2023-11-21T11:15:51;12.70;99.90
22813;DHT22;11573;51.334;3.244;2023-11-21T11:18:26;12.70;99.90
22813;DHT22;11573;51.334;3.244;2023-11-21T11:20:54;12.70;99.90
22813;DHT22;11573;51.334;3.244;2023-11-21T11:23:49;12.70;99.90
22813;DHT22;11573;51.334;3.244;2023-11-21T11:35:07;12.70;99.90
22813;DHT22;11573;51.334;3.244;2023-11-21T11:37:37;12.90;99.90
22813;DHT22;11573;51.334;3.244;2023-11-21T11:40:06;12.90;99.90
22813;DHT22;11573;51.334;3.244;2023-11-21T11:42:33;13.00;99.90
22813;DHT22;11573;51.334;3.244;2023-11-21T11:45:00;13.20;99.90
22813;DHT22;11573;51.334;3.244;2023-11-21T11:47:31;13.20;99.90
22813;DHT22;11573;51.334;3.244;2023-11-21T11:52:51;13.20;99.90
22813;DHT22;11573;51.334;3.244;2023-11-21T11:55:21;13.10;99.90
22813;DHT22;11573;51.334;3.244;2023-11-21T12:02:57;12.60;99.90
22813;DHT22;11573;51.334;3.244;2023-11-21T12:05:26;12.50;99.90
22813;DHT22;11573;51.334;3.244;2023-11-21T12:08:01;12.40;99.90
22813;DHT22;11573;51.334;3.244;2023-11-21T12:10:34;12.40;99.90
22813;DHT22;11573;51.334;3.244;2023-11-21T12:13:04;12.40;99.90
22813;DHT22;11573;51.334;3.244;2023-11-21T12:15:34;12.40;99.90
22813;DHT22;11573;51.334;3.244;2023-11-21T12:18:02;12.50;99.90
22813;DHT22;11573;51.334;3.244;2023-11-21T12:20:32;12.50;99.90
22813;DHT22;11573;51.334;3.244;2023-11-21T12:23:05;12.60;99.90
22813;DHT22;11573;51.334;3.244;2023-11-21T12:25:32;12.60;99.90
22813;DHT22;11573;51.334;3.244;2023-11-21T12:28:01;12.60;99.90
22813;DHT22;11573;51.334;3.244;2023-11-21T12:30:31;12.60;99.90
22813;DHT22;11573;51.334;3.244;2023-11-21T12:32:59;12.50;99.90
22813;DHT22;11573;51.334;3.244;2023-11-21T12:35:33;12.50;99.90
22813;DHT22;11573;51.334;3.244;2023-11-21T12:38:04;12.40;99.90
22813;DHT22;11573;51.334;3.244;2023-11-21T12:40:36;12.40;99.90
22813;DHT22;11573;51.334;3.244;2023-11-21T12:43:03;12.30;99.90
22813;DHT22;11573;51.334;3.244;2023-11-21T12:45:31;12.30;99.90
22813;DHT22;11573;51.334;3.244;2023-11-21T12:48:02;12.30;99.90
22813;DHT22;11573;51.334;3.244;2023-11-21T12:50:36;12.30;99.90
22813;DHT22;11573;51.334;3.244;2023-11-21T12:53:11;12.40;99.90
22813;DHT22;11573;51.334;3.244;2023-11-21T12:55:39;12.40;99.90
22813;DHT22;11573;51.334;3.244;2023-11-21T12:58:09;12.40;99.90
22813;DHT22;11573;51.334;3.244;2023-11-21T13:00:47;12.40;99.90
22813;DHT22;11573;51.334;3.244;2023-11-21T13:03:18;12.40;99.90
22813;DHT22;11573;51.334;3.244;2023-11-21T13:05:48;12.40;99.90
22813;DHT22;11573;51.334;3.244;2023-11-21T13:08:22;12.30;99.90
22813;DHT22;11573;51.334;3.244;2023-11-21T13:10:55;12.30;99.90
22813;DHT22;11573;51.334;3.244;2023-11-21T13:13:25;12.30;99.90
22813;DHT22;11573;51.334;3.244;2023-11-21T13:16:00;12.30;99.90
22813;DHT22;11573;51.334;3.244;2023-11-21T13:18:33;12.40;99.90
22813;DHT22;11573;51.334;3.244;2023-11-21T13:21:02;12.40;99.90
22813;DHT22;11573;51.334;3.244;2023-11-21T13:23:36;12.30;99.90
22813;DHT22;11573;51.334;3.244;2023-11-21T13:26:05;12.40;99.90
22813;DHT22;11573;51.334;3.244;2023-11-21T13:28:34;12.30;99.90
22813;DHT22;11573;51.334;3.244;2023-11-21T13:31:03;12.30;99.90
22813;DHT22;11573;51.334;3.244;2023-11-21T13:33:37;12.30;99.90
22813;DHT22;11573;51.334;3.244;2023-11-21T13:36:10;12.40;99.90
22813;DHT22;11573;51.334;3.244;2023-11-21T13:38:38;12.50;99.90
22813;DHT22;11573;51.334;3.244;2023-11-21T13:41:10;12.50;99.90
22813;DHT22;11573;51.334;3.244;2023-11-21T13:43:39;12.40;99.90
22813;DHT22;11573;51.334;3.244;2023-11-21T13:46:06;12.30;99.90
22813;DHT22;11573;51.334;3.244;2023-11-21T13:48:40;12.30;99.90
22813;DHT22;11573;51.334;3.244;2023-11-21T13:51:10;12.30;99.90
22813;DHT22;11573;51.334;3.244;2023-11-21T13:53:45;12.30;99.90
22813;DHT22;11573;51.334;3.244;2023-11-21T13:56:17;12.20;99.90
22813;DHT22;11573;51.334;3.244;2023-11-21T13:58:52;12.20;99.90
22813;DHT22;11573;51.334;3.244;2023-11-21T14:01:24;12.20;99.90
22813;DHT22;11573;51.334;3.244;2023-11-21T14:04:02;12.20;99.90
22813;DHT22;11573;51.334;3.244;2023-11-21T14:06:39;12.20;99.90
22813;DHT22;11573;51.334;3.244;2023-11-21T14:09:16;12.20;99.90
22813;DHT22;11573;51.334;3.244;2023-11-21T14:11:54;12.20;99.90
22813;DHT22;11573;51.334;3.244;2023-11-21T14:14:25;12.20;99.90
22813;DHT22;11573;51.334;3.244;2023-11-21T14:16:53;12.20;99.90
22813;DHT22;11573;51.334;3.244;2023-11-21T14:19:20;12.10;99.90
22813;DHT22;11573;51.334;3.244;2023-11-21T14:21:48;12.10;99.90
22813;DHT22;11573;51.334;3.244;2023-11-21T14:24:17;12.00;99.90
22813;DHT22;11573;51.334;3.244;2023-11-21T14:26:46;12.00;99.90
22813;DHT22;11573;51.334;3.244;2023-11-21T14:29:14;12.00;99.90
22813;DHT22;11573;51.334;3.244;2023-11-21T14:31:44;12.00;99.90
22813;DHT22;11573;51.334;3.244;2023-11-21T14:34:11;11.90;99.90
22813;DHT22;11573;51.334;3.244;2023-11-21T14:36:39;12.00;99.90
22813;DHT22;11573;51.334;3.244;2023-11-21T14:39:07;11.90;99.90
22813;DHT22;11573;51.334;3.244;2023-11-21T14:41:36;11.90;99.90
22813;DHT22;11573;51.334;3.244;2023-11-21T14:44:05;11.90;99.90
22813;DHT22;11573;51.334;3.244;2023-11-21T14:46:34;11.90;99.90
22813;DHT22;11573;51.334;3.244;2023-11-21T14:49:03;11.80;99.90
22813;DHT22;11573;51.334;3.244;2023-11-21T14:51:51;11.80;99.90
22813;DHT22;11573;51.334;3.244;2023-11-21T14:54:31;11.80;99.90
22813;DHT22;11573;51.334;3.244;2023-11-21T14:57:10;11.70;99.90
22813;DHT22;11573;51.334;3.244;2023-11-21T14:59:49;11.60;99.90
22813;DHT22;11573;51.334;3.244;2023-11-21T15:02:19;11.60;99.90
22813;DHT22;11573;51.334;3.244;2023-11-21T15:05:11;11.60;99.90
22813;DHT22;11573;51.334;3.244;2023-11-21T15:07:44;11.60;99.90
22813;DHT22;11573;51.334;3.244;2023-11-21T15:10:13;11.60;99.90
22813;DHT22;11573;51.334;3.244;2023-11-21T15:12:42;11.60;99.90
22813;DHT22;11573;51.334;3.244;2023-11-21T15:15:11;11.50;99.90
22813;DHT22;11573;51.334;3.244;2023-11-21T15:17:40;11.50;99.90
22813;DHT22;11573;51.334;3.244;2023-11-21T15:20:10;11.40;99.90
22813;DHT22;11573;51.334;3.244;2023-11-21T15:22:39;11.40;99.90
22813;DHT22;11573;51.334;3.244;2023-11-21T15:25:07;11.30;99.90
22813;DHT22;11573;51.334;3.244;2023-11-21T15:27:34;11.30;99.90
22813;DHT22;11573;51.334;3.244;2023-11-21T15:30:03;11.20;99.90
22813;DHT22;11573;51.334;3.244;2023-11-21T15:32:30;11.20;99.90
22813;DHT22;11573;51.334;3.244;2023-11-21T15:34:57;11.20;99.90
22813;DHT22;11573;51.334;3.244;2023-11-21T15:37:24;11.10;99.90
22813;DHT22;11573;51.334;3.244;2023-11-21T15:39:54;11.10;99.90
22813;DHT22;11573;51.334;3.244;2023-11-21T15:42:21;11.20;99.90
22813;DHT22;11573;51.334;3.244;2023-11-21T15:44:48;11.20;99.90
22813;DHT22;11573;51.334;3.244;2023-11-21T15:47:17;11.10;99.90
22813;DHT22;11573;51.334;3.244;2023-11-21T15:49:44;11.10;99.90
22813;DHT22;11573;51.334;3.244;2023-11-21T15:52:16;11.20;99.90
22813;DHT22;11573;51.334;3.244;2023-11-21T15:54:43;11.20;99.90
22813;DHT22;11573;51.334;3.244;2023-11-21T15:57:13;11.20;99.90
22813;DHT22;11573;51.334;3.244;2023-11-21T15:59:41;11.20;99.90